Time;durP1;ratioP1;P1;durP2;ratioP2;P2;SDS_P1;SDS_P2;PMS_P1;PMS_P2;Temp;Humidity;BMP_temperature;BMP_pressure;BME280_temperature;BME280_humidity;BME280_pressure;Samples;Min_cycle;Max_cycle;Signal;HPM_P1;HPM_P2
2022/10/15 00:01:50;;;;;;;40.00;25.00;;;12.00;99.90;;;;;;5049054;28;20091;-79
2022/10/15 00:04:15;;;;;;;43.72;25.75;;;12.40;99.90;;;;;;5052864;28;20120;-79
2022/10/15 00:06:41;;;;;;;37.15;24.05;;;12.00;99.90;;;;;;5047866;28;20469;-79
2022/10/15 00:09:07;;;;;;;41.83;26.60;;;12.00;99.90;;;;;;5043452;28;20029;-79
2022/10/15 00:11:34;;;;;;;42.75;25.50;;;12.00;99.90;;;;;;5009634;28;20049;-79
2022/10/15 00:14:00;;;;;;;43.65;26.00;;;12.30;99.90;;;;;;5018212;28;20084;-79
2022/10/15 00:16:31;;;;;;;40.90;25.63;;;12.20;99.90;;;;;;5041024;28;20064;-78
2022/10/15 00:18:58;;;;;;;41.72;25.40;;;12.00;99.90;;;;;;5048032;28;20032;-79
2022/10/15 00:21:24;;;;;;;42.22;26.70;;;12.10;99.90;;;;;;5048676;28;20044;-79
2022/10/15 00:23:50;;;;;;;45.67;26.63;;;12.00;99.90;;;;;;5044465;28;20041;-79
2022/10/15 00:26:23;;;;;;;46.00;26.25;;;11.90;99.90;;;;;;5018339;28;20040;-79
2022/10/15 00:28:51;;;;;;;40.53;26.75;;;12.00;99.90;;;;;;5039323;28;20132;-78
2022/10/15 00:31:19;;;;;;;44.70;27.05;;;12.30;99.90;;;;;;5034208;28;20419;-78
2022/10/15 00:33:50;;;;;;;41.47;26.27;;;12.00;99.90;;;;;;5012302;28;20041;-78
2022/10/15 00:36:23;;;;;;;45.47;26.88;;;12.50;99.90;;;;;;5051954;28;20392;-78
2022/10/15 00:38:50;;;;;;;40.80;26.42;;;12.00;99.90;;;;;;5032454;28;20044;-79
2022/10/15 00:41:27;;;;;;;38.45;25.85;;;12.50;99.90;;;;;;5052335;28;20478;-79
2022/10/15 00:44:21;;;;;;;41.97;26.30;;;12.00;99.90;;;;;;5041464;28;20029;-79
2022/10/15 00:47:03;;;;;;;41.88;25.77;;;12.00;99.90;;;;;;5013133;28;20044;-79
2022/10/15 00:49:38;;;;;;;40.72;25.88;;;12.00;99.90;;;;;;5041846;28;20064;-79
2022/10/15 00:52:12;;;;;;;39.92;25.45;;;12.00;99.90;;;;;;5008062;28;20160;-79
2022/10/15 00:54:42;;;;;;;46.60;25.48;;;12.00;99.90;;;;;;5038061;28;20033;-79
2022/10/15 00:57:11;;;;;;;43.58;26.02;;;12.60;99.90;;;;;;5048234;28;20041;-79
2022/10/15 00:59:42;;;;;;;40.50;25.35;;;12.60;99.90;;;;;;5049789;28;20051;-79
2022/10/15 01:02:09;;;;;;;38.77;24.60;;;12.50;99.90;;;;;;5011066;28;20041;-79
2022/10/15 01:04:41;;;;;;;38.67;24.98;;;12.00;99.90;;;;;;5027143;28;20044;-79
2022/10/15 01:07:08;;;;;;;38.00;24.93;;;12.00;99.90;;;;;;5045410;28;20038;-80
2022/10/15 01:09:34;;;;;;;41.53;24.83;;;12.00;99.90;;;;;;5027254;28;20287;-80
2022/10/15 01:12:01;;;;;;;38.75;24.70;;;12.30;99.90;;;;;;5014717;28;20041;-79
2022/10/15 01:15:14;;;;;;;68.95;26.13;;;12.10;99.90;;;;;;5045344;28;20045;-79
2022/10/15 01:17:43;;;;;;;40.88;24.42;;;12.00;99.90;;;;;;4973974;28;20057;-79
2022/10/15 01:20:41;;;;;;;42.85;24.80;;;12.70;99.90;;;;;;4990875;28;20121;-79
2022/10/15 01:23:41;;;;;;;42.75;24.67;;;12.00;99.90;;;;;;5010733;28;20061;-79
2022/10/15 01:26:35;;;;;;;38.10;24.33;;;12.00;99.90;;;;;;5034442;28;20056;-79
2022/10/15 01:29:23;;;;;;;40.53;22.63;;;12.00;99.90;;;;;;5015019;28;20040;-79
2022/10/15 01:32:11;;;;;;;40.50;25.27;;;12.00;99.90;;;;;;5041229;28;20041;-79
2022/10/15 01:34:50;;;;;;;38.25;24.02;;;12.30;99.90;;;;;;5026902;28;20041;-80
2022/10/15 01:37:35;;;;;;;39.90;23.85;;;11.90;99.90;;;;;;5033107;28;20164;-80
2022/10/15 01:40:29;;;;;;;40.58;24.38;;;11.90;99.90;;;;;;5040326;28;20029;-79
2022/10/15 01:43:01;;;;;;;38.17;23.95;;;11.90;99.90;;;;;;5042687;28;20043;-80
2022/10/15 01:45:39;;;;;;;44.10;25.63;;;12.30;99.90;;;;;;5026163;28;20120;-79
2022/10/15 01:48:10;;;;;;;40.90;24.10;;;12.00;99.90;;;;;;5045234;28;20040;-79
2022/10/15 01:50:43;;;;;;;40.45;23.88;;;12.00;99.90;;;;;;5033003;28;20033;-79
2022/10/15 01:53:12;;;;;;;38.50;23.65;;;12.00;99.90;;;;;;5050326;28;20065;-80
2022/10/15 01:55:42;;;;;;;47.40;24.35;;;11.90;99.90;;;;;;5034035;28;20128;-80
2022/10/15 01:58:10;;;;;;;43.42;24.70;;;12.00;99.90;;;;;;5025713;28;20052;-80
2022/10/15 02:00:37;;;;;;;39.88;24.08;;;12.40;99.90;;;;;;5043827;28;20033;-80
2022/10/15 02:03:03;;;;;;;44.35;24.08;;;11.90;99.90;;;;;;5038800;28;20395;-79
2022/10/15 02:05:34;;;;;;;38.35;24.00;;;12.30;99.90;;;;;;5029398;28;20040;-79
2022/10/15 02:08:03;;;;;;;42.25;24.27;;;12.10;99.90;;;;;;5034916;28;20403;-80
2022/10/15 02:10:51;;;;;;;44.05;23.67;;;11.90;99.90;;;;;;5050839;28;20033;-79
2022/10/15 02:13:53;;;;;;;43.40;24.33;;;12.30;99.90;;;;;;5008282;28;20048;-79
2022/10/15 02:16:46;;;;;;;37.60;23.58;;;11.90;99.90;;;;;;5049318;28;20041;-79
2022/10/15 02:19:44;;;;;;;38.95;23.30;;;11.90;99.90;;;;;;5029043;28;20036;-79
2022/10/15 02:22:16;;;;;;;35.72;21.45;;;12.00;99.90;;;;;;5036226;28;20033;-80
2022/10/15 02:25:04;;;;;;;36.75;22.42;;;12.40;99.90;;;;;;5022911;28;20523;-79
2022/10/15 02:27:32;;;;;;;37.13;22.95;;;11.80;99.90;;;;;;5045620;28;20483;-79
2022/10/15 02:30:02;;;;;;;40.65;23.42;;;12.30;99.90;;;;;;5025082;28;20055;-79
2022/10/15 02:32:34;;;;;;;39.85;23.25;;;12.60;99.90;;;;;;5036719;28;20037;-79
2022/10/15 02:35:01;;;;;;;36.58;21.85;;;12.00;99.90;;;;;;5042111;28;20041;-79
2022/10/15 02:37:30;;;;;;;37.50;22.40;;;11.90;99.90;;;;;;5023696;28;20036;-79
2022/10/15 02:39:55;;;;;;;37.38;22.67;;;12.20;99.90;;;;;;5050363;28;20035;-79
2022/10/15 02:42:22;;;;;;;36.83;22.48;;;11.90;99.90;;;;;;5032605;28;20037;-80
2022/10/15 02:44:52;;;;;;;40.13;23.45;;;12.10;99.90;;;;;;5033731;28;20426;-79
2022/10/15 02:47:17;;;;;;;37.65;22.70;;;11.90;99.90;;;;;;5029278;28;20037;-79
2022/10/15 02:49:43;;;;;;;37.58;23.42;;;11.90;99.90;;;;;;5052760;28;20044;-79
2022/10/15 02:52:09;;;;;;;40.90;23.73;;;12.00;99.90;;;;;;5008983;28;20041;-79
2022/10/15 02:54:35;;;;;;;43.15;24.15;;;12.20;99.90;;;;;;5036233;28;20063;-79
2022/10/15 02:57:01;;;;;;;39.60;23.50;;;12.10;99.90;;;;;;5049682;28;20055;-79
2022/10/15 02:59:27;;;;;;;40.22;23.58;;;12.00;99.90;;;;;;5030255;28;20437;-79
2022/10/15 03:01:52;;;;;;;45.83;24.25;;;12.50;99.90;;;;;;5024517;28;20430;-79
2022/10/15 03:04:18;;;;;;;36.50;22.95;;;12.30;99.90;;;;;;5036416;28;20107;-79
2022/10/15 03:06:44;;;;;;;40.90;23.70;;;11.90;99.90;;;;;;5013406;28;20050;-79
2022/10/15 03:09:11;;;;;;;43.92;24.35;;;12.20;99.90;;;;;;5020997;28;20395;-80
2022/10/15 03:11:38;;;;;;;44.72;24.98;;;11.90;99.90;;;;;;5014975;28;20720;-80
2022/10/15 03:14:05;;;;;;;45.95;25.27;;;11.90;99.90;;;;;;5046873;28;20502;-80
2022/10/15 03:16:32;;;;;;;46.38;25.33;;;12.30;99.90;;;;;;5019672;28;20044;-80
2022/10/15 03:18:57;;;;;;;46.90;24.67;;;11.90;99.90;;;;;;5007708;28;20037;-79
2022/10/15 03:21:29;;;;;;;42.25;24.30;;;12.40;99.90;;;;;;5037736;28;20040;-79
2022/10/15 03:23:56;;;;;;;42.42;24.83;;;11.90;99.90;;;;;;5032156;28;20179;-80
2022/10/15 03:26:21;;;;;;;45.10;25.42;;;12.40;99.90;;;;;;5019851;28;20213;-79
2022/10/15 03:28:47;;;;;;;43.97;25.23;;;12.20;99.90;;;;;;5050953;28;20067;-79
2022/10/15 03:31:16;;;;;;;44.50;25.48;;;12.10;99.90;;;;;;5017969;28;20471;-80
2022/10/15 03:33:43;;;;;;;45.85;25.25;;;11.80;99.90;;;;;;5016956;28;20040;-80
2022/10/15 03:36:09;;;;;;;47.38;27.48;;;11.80;99.90;;;;;;5029576;28;20029;-79
2022/10/15 03:38:35;;;;;;;43.00;25.75;;;11.80;99.90;;;;;;5044693;28;20108;-79
2022/10/15 03:41:00;;;;;;;52.05;27.88;;;11.80;99.90;;;;;;5044657;28;20144;-80
2022/10/15 03:43:26;;;;;;;51.85;28.50;;;12.20;99.90;;;;;;5050215;28;20095;-80
2022/10/15 03:45:53;;;;;;;50.90;27.80;;;11.80;99.90;;;;;;5038803;28;20090;-80
2022/10/15 03:48:19;;;;;;;50.80;29.20;;;11.70;99.90;;;;;;5049864;28;20504;-80
2022/10/15 03:50:45;;;;;;;49.10;29.17;;;11.80;99.90;;;;;;5049230;28;20040;-80
2022/10/15 03:53:13;;;;;;;52.55;29.92;;;12.20;99.90;;;;;;5048574;28;20034;-80
2022/10/15 03:55:39;;;;;;;54.85;30.52;;;12.40;99.90;;;;;;5053224;28;20033;-80
2022/10/15 03:58:05;;;;;;;52.47;30.00;;;11.70;99.90;;;;;;5018890;28;20045;-79
2022/10/15 04:00:31;;;;;;;60.13;31.63;;;12.10;99.90;;;;;;5045498;28;20038;-80
2022/10/15 04:02:56;;;;;;;55.42;30.45;;;11.60;99.90;;;;;;5037535;28;20041;-79
2022/10/15 04:05:23;;;;;;;55.00;31.05;;;11.60;99.90;;;;;;5013840;28;20087;-79
2022/10/15 04:07:49;;;;;;;57.08;30.58;;;11.60;99.90;;;;;;5030841;28;20486;-79
2022/10/15 04:10:14;;;;;;;57.67;31.02;;;11.60;99.90;;;;;;5052100;28;20039;-80
2022/10/15 04:12:40;;;;;;;55.88;30.98;;;12.10;99.90;;;;;;5047991;28;20450;-79
2022/10/15 04:15:10;;;;;;;56.40;30.20;;;12.20;99.90;;;;;;5026451;28;20037;-79
2022/10/15 04:17:36;;;;;;;63.92;33.63;;;11.60;99.90;;;;;;5047719;28;20033;-80
2022/10/15 04:20:06;;;;;;;61.03;33.15;;;12.20;99.90;;;;;;5048942;28;20040;-80
2022/10/15 04:22:31;;;;;;;60.30;31.95;;;11.60;99.90;;;;;;5046844;28;20123;-79
2022/10/15 04:24:57;;;;;;;55.85;31.65;;;11.60;99.90;;;;;;5026131;28;20080;-79
2022/10/15 04:27:23;;;;;;;66.57;33.22;;;12.00;99.90;;;;;;5049726;28;20104;-79
2022/10/15 04:29:49;;;;;;;59.92;33.33;;;11.70;99.90;;;;;;5047260;28;20033;-79
2022/10/15 04:32:16;;;;;;;65.40;34.25;;;11.70;99.90;;;;;;5023914;28;20040;-79
2022/10/15 04:34:42;;;;;;;66.28;34.30;;;12.30;99.90;;;;;;5032099;28;20037;-80
2022/10/15 04:37:11;;;;;;;68.18;33.92;;;12.30;99.90;;;;;;5024480;28;20064;-79
2022/10/15 04:39:36;;;;;;;62.83;32.45;;;11.70;99.90;;;;;;5009960;28;20044;-79
2022/10/15 04:42:07;;;;;;;61.15;32.55;;;11.70;99.90;;;;;;5030952;28;20034;-79
2022/10/15 04:44:32;;;;;;;61.33;32.13;;;11.70;99.90;;;;;;5027122;28;20395;-80
2022/10/15 04:47:02;;;;;;;62.80;33.00;;;12.20;99.90;;;;;;5039046;28;20073;-79
2022/10/15 04:49:28;;;;;;;56.35;31.15;;;11.70;99.90;;;;;;5046250;28;20111;-79
2022/10/15 04:51:55;;;;;;;62.17;32.97;;;11.70;99.90;;;;;;5006643;28;20655;-79
2022/10/15 04:54:20;;;;;;;60.35;31.75;;;12.20;99.90;;;;;;5045687;28;20036;-79
2022/10/15 04:56:47;;;;;;;66.47;32.85;;;11.60;99.90;;;;;;5041440;28;20481;-79
2022/10/15 04:59:16;;;;;;;55.90;32.05;;;11.60;99.90;;;;;;5019052;28;20392;-80
2022/10/15 05:01:42;;;;;;;60.95;32.03;;;11.60;99.90;;;;;;5048295;28;20132;-80
2022/10/15 05:04:11;;;;;;;61.97;33.92;;;12.00;99.90;;;;;;5040251;28;20041;-80
2022/10/15 05:06:37;;;;;;;68.70;33.78;;;11.60;99.90;;;;;;5021684;28;20072;-79
2022/10/15 05:09:02;;;;;;;59.70;32.38;;;12.00;99.90;;;;;;5033466;28;20503;-79
2022/10/15 05:11:28;;;;;;;62.72;32.70;;;11.60;99.90;;;;;;5027501;28;20080;-79
2022/10/15 05:13:55;;;;;;;64.82;33.13;;;12.00;99.90;;;;;;5048535;28;20041;-79
2022/10/15 05:16:24;;;;;;;64.55;33.05;;;12.10;99.90;;;;;;5051156;28;20036;-80
2022/10/15 05:18:54;;;;;;;64.82;32.90;;;11.70;99.90;;;;;;5048127;28;20033;-79
2022/10/15 05:21:21;;;;;;;63.25;33.53;;;11.90;99.90;;;;;;5016776;28;20491;-79
2022/10/15 05:23:49;;;;;;;58.35;32.08;;;11.60;99.90;;;;;;5008557;28;20056;-79
2022/10/15 05:26:22;;;;;;;71.70;34.10;;;11.60;99.90;;;;;;5017423;28;20029;-80
2022/10/15 05:28:50;;;;;;;68.10;34.45;;;12.30;99.90;;;;;;5025039;28;20115;-80
2022/10/15 05:31:21;;;;;;;63.17;32.78;;;11.60;99.90;;;;;;5032976;28;20041;-80
2022/10/15 05:33:50;;;;;;;63.22;34.05;;;11.60;99.90;;;;;;5005425;28;20041;-80
2022/10/15 05:36:21;;;;;;;61.58;33.50;;;11.70;99.90;;;;;;5038221;28;20033;-80
2022/10/15 05:38:49;;;;;;;62.00;33.70;;;11.70;99.90;;;;;;5042144;28;20534;-80
2022/10/15 05:41:18;;;;;;;63.80;34.22;;;11.70;99.90;;;;;;5026394;28;20048;-80
2022/10/15 05:43:48;;;;;;;62.35;34.33;;;11.50;99.90;;;;;;5048494;28;20037;-80
2022/10/15 05:46:14;;;;;;;63.75;34.65;;;11.70;99.90;;;;;;5044449;28;20037;-80
2022/10/15 05:48:40;;;;;;;63.00;34.53;;;11.70;99.90;;;;;;5047394;28;20400;-80
2022/10/15 05:51:12;;;;;;;64.25;34.78;;;11.70;99.90;;;;;;5027170;28;20164;-80
2022/10/15 05:53:39;;;;;;;64.88;33.28;;;11.60;99.90;;;;;;5007409;28;20033;-80
2022/10/15 05:56:05;;;;;;;64.85;32.58;;;12.00;99.90;;;;;;5042128;28;20080;-80
2022/10/15 05:58:32;;;;;;;59.00;32.70;;;11.80;99.90;;;;;;5050692;28;20043;-80
2022/10/15 06:01:00;;;;;;;62.33;33.17;;;11.80;99.90;;;;;;5027859;28;20038;-80
2022/10/15 06:03:26;;;;;;;71.18;34.80;;;12.10;99.90;;;;;;5026935;28;20029;-80
2022/10/15 06:05:53;;;;;;;64.20;34.05;;;11.90;99.90;;;;;;5045664;28;20037;-80
2022/10/15 06:08:20;;;;;;;61.58;33.42;;;11.80;99.90;;;;;;5039798;28;20442;-80
2022/10/15 06:10:48;;;;;;;64.30;33.85;;;12.00;99.90;;;;;;5038108;28;20071;-80
2022/10/15 06:13:14;;;;;;;63.85;33.35;;;12.30;99.90;;;;;;5022219;28;20425;-80
2022/10/15 06:15:42;;;;;;;66.30;33.60;;;11.80;99.90;;;;;;5037527;28;20037;-79
2022/10/15 06:18:09;;;;;;;65.93;35.00;;;12.10;99.90;;;;;;5047334;28;20041;-80
2022/10/15 06:20:35;;;;;;;61.35;32.75;;;12.10;99.90;;;;;;5032414;28;20121;-80
2022/10/15 06:23:02;;;;;;;61.45;32.15;;;12.40;99.90;;;;;;5052314;28;20033;-80
2022/10/15 06:25:28;;;;;;;59.75;32.95;;;12.00;99.90;;;;;;5020051;28;20517;-79
2022/10/15 06:27:54;;;;;;;61.60;33.50;;;12.60;99.90;;;;;;5004430;28;20083;-81
2022/10/15 06:30:20;;;;;;;66.78;31.98;;;12.60;99.90;;;;;;5032092;28;20042;-80
2022/10/15 06:32:50;;;;;;;60.15;33.25;;;12.50;99.90;;;;;;5034830;28;20055;-80
2022/10/15 06:35:20;;;;;;;60.88;32.35;;;11.90;99.90;;;;;;5046493;28;20032;-82
2022/10/15 06:37:47;;;;;;;62.90;32.90;;;12.60;99.90;;;;;;5018282;28;20041;-82
2022/10/15 06:40:14;;;;;;;63.15;32.83;;;12.50;99.90;;;;;;5022040;28;20497;-80
2022/10/15 06:42:41;;;;;;;67.03;33.28;;;11.90;99.90;;;;;;5036937;28;20059;-81
2022/10/15 06:45:09;;;;;;;57.10;32.63;;;11.90;99.90;;;;;;5048228;28;20045;-81
2022/10/15 06:47:36;;;;;;;64.72;32.95;;;11.90;99.90;;;;;;5048886;28;20073;-80
2022/10/15 06:50:06;;;;;;;60.70;31.55;;;12.00;99.90;;;;;;5013497;28;20068;-80
2022/10/15 06:52:33;;;;;;;56.13;32.75;;;12.00;99.90;;;;;;5021374;28;20052;-81
2022/10/15 06:54:59;;;;;;;60.83;32.90;;;11.60;99.90;;;;;;5033227;28;20083;-80
2022/10/15 06:57:26;;;;;;;59.33;31.63;;;12.60;99.90;;;;;;5053675;28;20071;-81
2022/10/15 06:59:52;;;;;;;62.83;32.88;;;12.20;99.90;;;;;;5048842;28;20040;-81
2022/10/15 07:02:18;;;;;;;57.13;31.63;;;12.20;99.90;;;;;;5050825;28;20041;-81
2022/10/15 07:04:44;;;;;;;60.28;33.45;;;12.00;99.90;;;;;;5029237;28;20299;-81
2022/10/15 07:07:10;;;;;;;64.88;32.83;;;12.30;99.90;;;;;;5045869;28;20033;-81
2022/10/15 07:09:37;;;;;;;60.67;34.15;;;12.20;99.90;;;;;;5047719;28;20033;-81
2022/10/15 07:12:04;;;;;;;62.65;34.40;;;12.10;99.90;;;;;;5018015;28;20368;-81
2022/10/15 07:14:30;;;;;;;64.13;33.75;;;12.10;99.90;;;;;;5036862;28;20118;-80
2022/10/15 07:16:58;;;;;;;56.10;34.13;;;12.30;99.90;;;;;;5049804;28;20072;-82
2022/10/15 07:19:24;;;;;;;56.75;32.67;;;12.40;99.90;;;;;;5008176;28;20166;-80
2022/10/15 07:21:50;;;;;;;60.22;34.53;;;12.70;99.90;;;;;;5030413;28;20082;-80
2022/10/15 07:24:15;;;;;;;61.05;34.97;;;12.20;99.90;;;;;;5041019;28;20487;-80
2022/10/15 07:26:41;;;;;;;61.08;34.28;;;12.80;99.90;;;;;;5031204;28;20037;-80
2022/10/15 07:29:07;;;;;;;64.40;35.00;;;12.20;99.90;;;;;;5029507;28;20128;-80
2022/10/15 07:31:33;;;;;;;63.45;34.92;;;12.20;99.90;;;;;;5039918;23;20046;-76
2022/10/15 07:33:58;;;;;;;65.57;36.15;;;12.20;99.90;;;;;;5020733;28;20041;-76
2022/10/15 07:36:25;;;;;;;65.95;35.03;;;12.30;99.90;;;;;;5023262;28;20069;-77
2022/10/15 07:38:50;;;;;;;71.15;36.35;;;12.30;99.90;;;;;;5017609;28;20044;-77
2022/10/15 07:41:16;;;;;;;66.80;34.28;;;12.40;99.90;;;;;;5024703;28;20247;-77
2022/10/15 07:43:43;;;;;;;66.93;35.95;;;12.40;99.90;;;;;;5013326;28;20134;-76
2022/10/15 07:46:09;;;;;;;67.95;35.75;;;12.40;99.90;;;;;;5015550;28;20033;-76
2022/10/15 07:48:34;;;;;;;60.92;34.90;;;12.50;99.90;;;;;;5015050;28;20506;-76
2022/10/15 07:51:05;;;;;;;63.28;34.45;;;12.50;99.90;;;;;;5034401;28;20037;-76
2022/10/15 07:53:31;;;;;;;69.25;36.15;;;12.50;99.90;;;;;;5002132;28;20379;-77
2022/10/15 07:56:01;;;;;;;70.47;37.85;;;12.50;99.90;;;;;;5015414;28;20116;-76
2022/10/15 07:58:29;;;;;;;73.75;37.63;;;12.50;99.90;;;;;;5033888;28;20037;-77
2022/10/15 08:00:55;;;;;;;67.40;37.28;;;12.50;99.90;;;;;;5033123;28;20049;-77
2022/10/15 08:03:20;;;;;;;72.03;37.47;;;12.60;99.90;;;;;;5012685;28;20045;-77
2022/10/15 08:05:46;;;;;;;69.10;36.80;;;12.60;99.90;;;;;;5011518;28;20094;-77
2022/10/15 08:08:11;;;;;;;74.00;38.17;;;12.60;99.90;;;;;;5007915;28;20415;-78
2022/10/15 08:10:37;;;;;;;67.88;36.35;;;12.60;99.90;;;;;;5008927;28;20484;-78
2022/10/15 08:13:03;;;;;;;73.43;38.35;;;12.70;99.90;;;;;;5016999;28;20037;-78
2022/10/15 08:15:31;;;;;;;74.30;37.63;;;12.70;99.90;;;;;;4997254;28;20049;-78
2022/10/15 08:17:59;;;;;;;76.10;38.15;;;12.70;99.90;;;;;;5011680;28;20128;-78
2022/10/15 08:20:24;;;;;;;80.82;38.90;;;12.70;99.90;;;;;;5012693;28;20131;-78
2022/10/15 08:22:50;;;;;;;76.55;38.08;;;12.70;99.90;;;;;;5016764;28;20080;-77
2022/10/15 08:25:15;;;;;;;81.07;38.72;;;12.70;99.90;;;;;;5011637;28;20034;-77
2022/10/15 08:27:41;;;;;;;77.82;37.30;;;12.70;99.90;;;;;;5013526;28;20826;-77
2022/10/15 08:30:07;;;;;;;82.82;39.92;;;12.70;99.90;;;;;;5009578;28;20052;-77
2022/10/15 08:32:33;;;;;;;85.63;41.33;;;12.80;99.90;;;;;;5010253;28;20103;-77
2022/10/15 08:34:58;;;;;;;74.90;37.55;;;12.80;99.90;;;;;;4993215;28;20049;-79
2022/10/15 08:37:24;;;;;;;82.35;37.80;;;12.80;99.90;;;;;;5014848;28;20380;-77
2022/10/15 08:39:50;;;;;;;76.50;36.85;;;12.80;99.90;;;;;;5013358;28;20037;-77
2022/10/15 08:42:44;;;;;;;72.88;35.05;;;12.90;99.90;;;;;;5015130;28;20477;-77
2022/10/15 08:45:12;;;;;;;75.68;35.22;;;12.70;99.90;;;;;;5005113;28;20056;-77
2022/10/15 08:47:47;;;;;;;80.82;35.90;;;12.80;99.90;;;;;;5018545;28;20033;-77
2022/10/15 08:50:37;;;;;;;75.18;34.08;;;12.70;99.90;;;;;;4995216;28;20052;-77
2022/10/15 08:53:03;;;;;;;70.38;33.72;;;12.70;99.90;;;;;;5012576;28;20068;-77
2022/10/15 08:55:36;;;;;;;66.18;32.45;;;12.80;99.90;;;;;;5013275;28;20443;-77
2022/10/15 08:58:19;;;;;;;69.00;32.72;;;12.70;99.90;;;;;;5011588;28;20120;-77
2022/10/15 09:01:12;;;;;;;64.47;30.58;;;12.70;99.90;;;;;;5009325;28;20056;-77
2022/10/15 09:03:46;;;;;;;;;;;12.70;99.90;;;;;;5001567;28;20056;-76
2022/10/15 09:06:35;;;;;;;51.78;25.38;;;12.80;99.90;;;;;;5019843;28;19921;-77
2022/10/15 09:09:19;;;;;;;47.67;25.50;;;12.80;99.90;;;;;;5007942;28;20688;-76
2022/10/15 09:11:47;;;;;;;53.80;26.83;;;12.80;99.90;;;;;;5009961;28;20487;-76
2022/10/15 09:14:21;;;;;;;52.67;26.70;;;12.80;99.90;;;;;;5017734;28;20082;-76
2022/10/15 09:16:48;;;;;;;52.92;26.58;;;12.90;99.90;;;;;;5014184;28;20045;-76
2022/10/15 09:19:21;;;;;;;49.97;25.27;;;12.90;99.90;;;;;;5029906;28;20063;-76
2022/10/15 09:21:48;;;;;;;52.45;26.33;;;12.90;99.90;;;;;;5012721;28;20399;-76
2022/10/15 09:24:23;;;;;;;53.88;26.25;;;12.90;99.90;;;;;;5029557;28;20044;-76
2022/10/15 09:27:14;;;;;;;49.13;25.70;;;12.90;99.90;;;;;;5013937;28;20376;-76
2022/10/15 09:29:58;;;;;;;48.08;22.75;;;12.90;99.90;;;;;;5035822;28;20146;-76
2022/10/15 09:32:46;;;;;;;46.78;23.83;;;13.00;99.90;;;;;;5027913;28;20046;-76
2022/10/15 09:35:25;;;;;;;42.90;22.75;;;13.00;99.90;;;;;;5041290;28;20105;-76
2022/10/15 09:38:00;;;;;;;39.08;21.38;;;13.00;99.90;;;;;;5017117;28;20041;-76
2022/10/15 09:40:47;;;;;;;44.08;21.77;;;13.10;99.90;;;;;;5010389;28;20545;-77
2022/10/15 09:43:18;;;;;;;39.47;21.13;;;13.10;99.90;;;;;;5006281;28;20104;-76
2022/10/15 09:45:44;;;;;;;38.97;20.95;;;13.10;99.90;;;;;;5028922;28;20494;-76
2022/10/15 09:48:16;;;;;;;38.75;21.30;;;13.10;99.90;;;;;;5018162;28;20045;-76
2022/10/15 09:50:46;;;;;;;40.95;22.27;;;13.10;99.90;;;;;;5029863;28;20041;-76
2022/10/15 09:53:48;;;;;;;39.45;20.80;;;13.20;99.90;;;;;;5012370;28;20047;-76
2022/10/15 09:56:27;;;;;;;37.53;20.60;;;13.20;99.90;;;;;;5013083;28;20045;-76
2022/10/15 09:58:53;;;;;;;39.85;20.58;;;13.20;99.90;;;;;;5036687;28;20356;-76
2022/10/15 10:01:20;;;;;;;38.75;20.15;;;13.30;99.90;;;;;;5035322;28;20045;-76
2022/10/15 10:04:07;;;;;;;36.00;20.35;;;13.30;99.90;;;;;;5025387;28;20073;-76
2022/10/15 10:07:11;;;;;;;37.55;21.15;;;13.30;99.90;;;;;;5009628;28;20046;-77
2022/10/15 10:09:52;;;;;;;42.13;21.90;;;13.40;99.90;;;;;;4994858;28;20050;-76
2022/10/15 10:12:21;;;;;;;38.88;22.30;;;13.40;99.90;;;;;;5012787;28;20045;-76
2022/10/15 10:14:59;;;;;;;38.15;21.13;;;13.40;99.90;;;;;;5029029;28;20041;-76
2022/10/15 10:17:27;;;;;;;43.45;22.27;;;13.50;99.90;;;;;;5013220;28;20099;-76
2022/10/15 10:20:07;;;;;;;36.08;21.15;;;13.60;99.90;;;;;;5018257;28;20045;-76
2022/10/15 10:22:54;;;;;;;39.35;21.30;;;13.70;99.90;;;;;;5022513;28;20088;-76
2022/10/15 10:25:26;;;;;;;37.10;20.83;;;13.70;99.90;;;;;;5020309;28;20037;-77
2022/10/15 10:27:56;;;;;;;36.95;21.05;;;13.80;99.90;;;;;;5019342;28;20041;-76
2022/10/15 10:30:22;;;;;;;37.45;20.35;;;13.90;99.90;;;;;;5005752;28;20041;-76
2022/10/15 10:32:54;;;;;;;35.83;20.08;;;14.00;99.90;;;;;;5020306;28;20045;-77
2022/10/15 10:35:23;;;;;;;34.92;19.23;;;14.00;99.90;;;;;;5025599;28;20200;-77
2022/10/15 10:37:50;;;;;;;28.58;18.27;;;14.10;99.90;;;;;;5021009;28;20519;-77
2022/10/15 10:40:25;;;;;;;27.02;17.60;;;14.20;99.90;;;;;;5010611;28;20050;-77
2022/10/15 10:43:20;;;;;;;27.20;16.88;;;14.10;99.90;;;;;;5008535;28;20042;-77
2022/10/15 10:45:57;;;;;;;30.92;18.73;;;14.10;99.90;;;;;;5011196;28;20083;-78
2022/10/15 10:48:27;;;;;;;26.83;17.55;;;14.10;99.90;;;;;;5013924;28;20454;-77
2022/10/15 10:51:08;;;;;;;28.42;17.58;;;14.10;99.90;;;;;;5014968;28;20049;-77
2022/10/15 10:53:58;;;;;;;27.10;17.10;;;14.20;99.90;;;;;;4995234;28;20511;-78
2022/10/15 10:56:37;;;;;;;28.38;17.10;;;14.10;99.90;;;;;;5013548;28;20052;-77
2022/10/15 10:59:17;;;;;;;27.33;17.10;;;14.10;99.90;;;;;;5003393;28;20041;-78
2022/10/15 11:01:42;;;;;;;26.98;17.05;;;14.20;99.90;;;;;;5019724;28;20049;-77
2022/10/15 11:04:24;;;;;;;29.38;17.38;;;14.20;99.90;;;;;;5020230;28;20044;-77
2022/10/15 11:07:04;;;;;;;25.77;16.52;;;14.20;99.90;;;;;;5028138;28;20037;-77
2022/10/15 11:09:54;;;;;;;25.63;15.35;;;14.30;99.90;;;;;;5020690;28;20033;-77
2022/10/15 11:12:26;;;;;;;25.88;16.65;;;14.30;99.90;;;;;;5033443;28;20052;-77
2022/10/15 11:15:29;;;;;;;25.17;16.83;;;14.30;99.90;;;;;;5021087;28;20643;-76
2022/10/15 11:18:01;;;;;;;31.00;16.55;;;14.30;99.90;;;;;;5001639;28;20071;-76
2022/10/15 11:21:08;;;;;;;24.45;15.95;;;14.30;99.90;;;;;;5010390;28;20045;-77
2022/10/15 11:23:52;;;;;;;26.40;16.35;;;14.30;99.90;;;;;;5014341;28;20087;-76
2022/10/15 11:26:54;;;;;;;26.75;16.80;;;14.30;99.90;;;;;;5024026;28;20033;-77
2022/10/15 11:29:27;;;;;;;29.27;17.25;;;14.30;99.90;;;;;;5027427;28;20116;-76
2022/10/15 11:32:18;;;;;;;25.45;17.42;;;14.30;99.90;;;;;;5021362;28;20094;-76
2022/10/15 11:35:21;;;;;;;26.05;16.77;;;14.30;99.90;;;;;;5023359;28;20502;-76
2022/10/15 11:38:17;;;;;;;26.83;16.70;;;14.40;99.90;;;;;;5030035;28;20490;-76
2022/10/15 11:41:17;;;;;;;25.98;16.83;;;14.40;99.90;;;;;;5026714;28;20046;-76
2022/10/15 11:43:56;;;;;;;24.50;16.70;;;14.50;99.90;;;;;;5034792;28;20045;-76
2022/10/15 11:46:40;;;;;;;29.70;17.08;;;14.60;99.90;;;;;;5030115;28;20045;-76
2022/10/15 11:49:21;;;;;;;75.72;19.70;;;14.70;99.90;;;;;;5013204;28;20034;-76
2022/10/15 11:52:23;;;;;;;46.60;18.02;;;14.80;99.90;;;;;;5023929;28;20082;-76
2022/10/15 11:55:00;;;;;;;42.60;17.40;;;14.90;99.90;;;;;;5020120;28;20506;-76
2022/10/15 11:57:30;;;;;;;57.50;20.50;;;14.90;99.90;;;;;;5015397;28;20087;-76
2022/10/15 12:00:00;;;;;;;44.90;18.60;;;14.90;99.90;;;;;;5044047;28;20816;-77
2022/10/15 12:02:33;;;;;;;31.05;16.42;;;14.90;99.90;;;;;;5010920;28;20157;-76
2022/10/15 12:05:08;;;;;;;25.15;15.63;;;15.00;99.90;;;;;;5022559;28;20550;-76
2022/10/15 12:07:43;;;;;;;24.80;16.35;;;14.90;99.90;;;;;;5047611;28;20033;-76
2022/10/15 12:10:44;;;;;;;23.90;15.63;;;14.90;99.90;;;;;;5022895;28;20033;-76
2022/10/15 12:13:28;;;;;;;27.42;16.15;;;14.80;99.90;;;;;;5021737;28;20120;-75
2022/10/15 12:16:11;;;;;;;26.90;16.38;;;14.80;99.90;;;;;;5006278;28;20125;-76
2022/10/15 12:19:11;;;;;;;28.52;16.15;;;14.80;99.90;;;;;;5012175;28;20074;-75
2022/10/15 12:21:39;;;;;;;30.55;16.52;;;14.80;99.90;;;;;;5017834;28;20084;-75
2022/10/15 12:24:37;;;;;;;26.27;16.02;;;14.80;99.90;;;;;;5035185;28;20120;-75
2022/10/15 12:27:18;;;;;;;24.63;16.48;;;14.80;99.90;;;;;;5023674;28;20065;-75
2022/10/15 12:30:10;;;;;;;24.73;15.13;;;14.80;99.90;;;;;;5020327;28;20122;-75
2022/10/15 12:32:47;;;;;;;24.83;15.00;;;14.80;99.90;;;;;;5027615;28;20044;-75
2022/10/15 12:35:38;;;;;;;25.92;15.48;;;14.70;99.90;;;;;;5013174;28;20041;-75
2022/10/15 12:38:35;;;;;;;25.60;15.18;;;14.70;99.90;;;;;;5011897;28;20052;-75
2022/10/15 12:41:08;;;;;;;24.40;15.10;;;14.70;99.90;;;;;;5021665;28;20045;-75
2022/10/15 12:43:35;;;;;;;;;;;14.70;99.90;;;;;;5013096;28;20034;-75
2022/10/15 12:46:03;;;;;;;21.67;13.70;;;14.70;99.90;;;;;;5013603;28;19923;-75
2022/10/15 12:48:37;;;;;;;23.27;14.07;;;14.70;99.90;;;;;;5019606;28;20112;-75
2022/10/15 12:51:29;;;;;;;20.85;13.85;;;14.60;99.90;;;;;;5018503;28;20125;-75
2022/10/15 12:53:57;;;;;;;20.48;14.18;;;14.60;99.90;;;;;;4995452;28;20037;-75
2022/10/15 12:56:23;;;;;;;20.02;13.73;;;14.70;99.90;;;;;;5004528;28;20049;-75